sensor_id;sensor_type;location;lat;lon;timestamp;pressure;altitude;pressure_sealevel;temperature;humidity
63903;BME280;50072;50.678;13.938;2023-05-03T00:00:39;100504.50;;;8.55;66.68
63903;BME280;50072;50.678;13.938;2023-05-03T00:03:11;100516.06;;;8.58;66.46
63903;BME280;50072;50.678;13.938;2023-05-03T00:05:41;100503.59;;;8.59;66.47
63903;BME280;50072;50.678;13.938;2023-05-03T00:08:09;100504.47;;;8.58;65.86
63903;BME280;50072;50.678;13.938;2023-05-03T00:10:36;100508.06;;;8.57;66.16
63903;BME280;50072;50.678;13.938;2023-05-03T00:13:02;100518.75;;;8.57;66.60
63903;BME280;50072;50.678;13.938;2023-05-03T00:15:28;100514.28;;;8.56;66.65
63903;BME280;50072;50.678;13.938;2023-05-03T00:18:03;100517.88;;;8.47;67.53
63903;BME280;50072;50.678;13.938;2023-05-03T00:20:36;100513.44;;;8.44;66.82
63903;BME280;50072;50.678;13.938;2023-05-03T00:23:02;100514.31;;;8.39;66.63
63903;BME280;50072;50.678;13.938;2023-05-03T00:25:28;100514.31;;;8.36;67.44
63903;BME280;50072;50.678;13.938;2023-05-03T00:27:54;100525.00;;;8.29;68.09
63903;BME280;50072;50.678;13.938;2023-05-03T00:30:20;100519.66;;;8.20;67.98
63903;BME280;50072;50.678;13.938;2023-05-03T00:32:46;100520.59;;;8.11;69.00
63903;BME280;50072;50.678;13.938;2023-05-03T00:35:12;100510.81;;;8.06;68.54
63903;BME280;50072;50.678;13.938;2023-05-03T00:37:39;100520.56;;;8.02;68.71
63903;BME280;50072;50.678;13.938;2023-05-03T00:40:05;100521.47;;;7.95;69.35
63903;BME280;50072;50.678;13.938;2023-05-03T00:42:34;100520.59;;;7.99;67.84
63903;BME280;50072;50.678;13.938;2023-05-03T00:45:07;100516.13;;;7.95;68.32
63903;BME280;50072;50.678;13.938;2023-05-03T00:47:33;100518.81;;;7.92;69.84
63903;BME280;50072;50.678;13.938;2023-05-03T00:50:00;100515.25;;;7.84;70.02
63903;BME280;50072;50.678;13.938;2023-05-03T00:52:28;100522.38;;;7.88;68.49
63903;BME280;50072;50.678;13.938;2023-05-03T00:54:56;100522.38;;;7.83;69.96
63903;BME280;50072;50.678;13.938;2023-05-03T00:57:24;100512.59;;;7.84;69.61
63903;BME280;50072;50.678;13.938;2023-05-03T00:59:58;100517.06;;;7.82;69.70
63903;BME280;50072;50.678;13.938;2023-05-03T01:02:26;100513.50;;;7.81;69.04
63903;BME280;50072;50.678;13.938;2023-05-03T01:04:53;100517.06;;;7.77;69.34
63903;BME280;50072;50.678;13.938;2023-05-03T01:07:44;100524.16;;;7.73;69.82
63903;BME280;50072;50.678;13.938;2023-05-03T01:15:53;100526.78;;;7.53;70.74
63903;BME280;50072;50.678;13.938;2023-05-03T01:18:29;100522.34;;;7.51;71.43
63903;BME280;50072;50.678;13.938;2023-05-03T01:20:58;100525.91;;;7.37;72.55
63903;BME280;50072;50.678;13.938;2023-05-03T01:23:59;100520.56;;;7.33;73.04
63903;BME280;50072;50.678;13.938;2023-05-03T01:26:31;100515.25;;;7.37;73.71
63903;BME280;50072;50.678;13.938;2023-05-03T01:29:04;100522.34;;;7.40;74.21
63903;BME280;50072;50.678;13.938;2023-05-03T01:31:52;100516.16;;;7.42;73.21
63903;BME280;50072;50.678;13.938;2023-05-03T01:37:15;100517.03;;;7.38;73.46
63903;BME280;50072;50.678;13.938;2023-05-03T01:39:52;100509.91;;;7.37;74.72
63903;BME280;50072;50.678;13.938;2023-05-03T01:42:27;100520.56;;;7.31;74.50
63903;BME280;50072;50.678;13.938;2023-05-03T01:45:02;100516.13;;;7.24;74.96
63903;BME280;50072;50.678;13.938;2023-05-03T01:47:34;100516.94;;;7.03;75.98
63903;BME280;50072;50.678;13.938;2023-05-03T01:49:59;100522.22;;;6.98;76.51
63903;BME280;50072;50.678;13.938;2023-05-03T01:52:25;100527.53;;;6.98;77.12
63903;BME280;50072;50.678;13.938;2023-05-03T01:54:52;100514.22;;;6.89;76.90
63903;BME280;50072;50.678;13.938;2023-05-03T01:57:20;100513.34;;;6.87;77.43
63903;BME280;50072;50.678;13.938;2023-05-03T01:59:46;100517.75;;;6.77;78.08
63903;BME280;50072;50.678;13.938;2023-05-03T02:02:11;100521.22;;;6.67;78.61
63903;BME280;50072;50.678;13.938;2023-05-03T02:04:46;100524.78;;;6.66;77.93
63903;BME280;50072;50.678;13.938;2023-05-03T02:07:14;100517.69;;;6.66;78.98
63903;BME280;50072;50.678;13.938;2023-05-03T02:09:40;100520.31;;;6.62;78.90
63903;BME280;50072;50.678;13.938;2023-05-03T02:12:06;100514.09;;;6.61;78.99
63903;BME280;50072;50.678;13.938;2023-05-03T02:14:32;100519.41;;;6.60;78.85
63903;BME280;50072;50.678;13.938;2023-05-03T02:16:58;100518.50;;;6.53;79.76
63903;BME280;50072;50.678;13.938;2023-05-03T02:19:27;100515.78;;;6.45;79.83
63903;BME280;50072;50.678;13.938;2023-05-03T02:21:55;100511.34;;;6.39;79.79
63903;BME280;50072;50.678;13.938;2023-05-03T02:24:23;100517.50;;;6.32;80.43
63903;BME280;50072;50.678;13.938;2023-05-03T02:26:52;100506.84;;;6.31;81.29
63903;BME280;50072;50.678;13.938;2023-05-03T02:29:29;100511.28;;;6.30;80.18
63903;BME280;50072;50.678;13.938;2023-05-03T02:31:56;100510.34;;;6.20;81.12
63903;BME280;50072;50.678;13.938;2023-05-03T02:34:22;100517.34;;;6.09;81.93
63903;BME280;50072;50.678;13.938;2023-05-03T02:36:49;100516.47;;;6.09;82.33
63903;BME280;50072;50.678;13.938;2023-05-03T02:39:16;100512.88;;;6.02;82.85
63903;BME280;50072;50.678;13.938;2023-05-03T02:41:45;100515.53;;;6.00;82.70
63903;BME280;50072;50.678;13.938;2023-05-03T02:44:16;100519.03;;;5.98;83.88
63903;BME280;50072;50.678;13.938;2023-05-03T02:46:46;100517.22;;;5.94;84.06
63903;BME280;50072;50.678;13.938;2023-05-03T02:49:16;100520.72;;;5.91;84.28
63903;BME280;50072;50.678;13.938;2023-05-03T02:51:46;100520.66;;;5.82;84.66
63903;BME280;50072;50.678;13.938;2023-05-03T02:54:13;100521.50;;;5.75;85.03
63903;BME280;50072;50.678;13.938;2023-05-03T02:56:42;100518.84;;;5.73;85.30
63903;BME280;50072;50.678;13.938;2023-05-03T02:59:09;100532.94;;;5.67;86.16
63903;BME280;50072;50.678;13.938;2023-05-03T03:01:34;100532.00;;;5.62;85.92
63903;BME280;50072;50.678;13.938;2023-05-03T03:04:00;100524.88;;;5.57;87.42
63903;BME280;50072;50.678;13.938;2023-05-03T03:06:27;100524.84;;;5.52;89.00
63903;BME280;50072;50.678;13.938;2023-05-03T03:08:54;100531.84;;;5.44;89.43
63903;BME280;50072;50.678;13.938;2023-05-03T03:11:22;100537.06;;;5.34;90.29
63903;BME280;50072;50.678;13.938;2023-05-03T03:13:52;100529.97;;;5.33;89.70
63903;BME280;50072;50.678;13.938;2023-05-03T03:16:22;100531.69;;;5.28;90.00
63903;BME280;50072;50.678;13.938;2023-05-03T03:18:50;100538.78;;;5.29;90.72
63903;BME280;50072;50.678;13.938;2023-05-03T03:21:15;100536.13;;;5.29;90.40
63903;BME280;50072;50.678;13.938;2023-05-03T03:23:41;100540.56;;;5.30;89.85
63903;BME280;50072;50.678;13.938;2023-05-03T03:26:07;100544.03;;;5.23;90.62
63903;BME280;50072;50.678;13.938;2023-05-03T03:28:33;100554.56;;;5.20;90.70
63903;BME280;50072;50.678;13.938;2023-05-03T03:31:00;100546.56;;;5.14;92.03
63903;BME280;50072;50.678;13.938;2023-05-03T03:33:26;100550.06;;;5.13;91.61
63903;BME280;50072;50.678;13.938;2023-05-03T03:35:51;100554.47;;;5.08;91.47
63903;BME280;50072;50.678;13.938;2023-05-03T03:38:19;100556.19;;;5.06;91.83
63903;BME280;50072;50.678;13.938;2023-05-03T03:40:46;100555.28;;;5.02;91.30
63903;BME280;50072;50.678;13.938;2023-05-03T03:43:12;100559.75;;;5.06;91.89
63903;BME280;50072;50.678;13.938;2023-05-03T03:45:44;100570.38;;;5.08;91.96
63903;BME280;50072;50.678;13.938;2023-05-03T03:48:10;100565.03;;;5.05;91.65
63903;BME280;50072;50.678;13.938;2023-05-03T03:50:36;100572.06;;;5.01;92.88
63903;BME280;50072;50.678;13.938;2023-05-03T03:53:02;100568.50;;;4.99;92.77
63903;BME280;50072;50.678;13.938;2023-05-03T03:55:28;100570.28;;;5.01;93.65
63903;BME280;50072;50.678;13.938;2023-05-03T03:57:56;100574.69;;;4.99;94.51
63903;BME280;50072;50.678;13.938;2023-05-03T04:00:21;100577.41;;;5.04;94.24
63903;BME280;50072;50.678;13.938;2023-05-03T04:02:48;100573.03;;;5.08;94.51
63903;BME280;50072;50.678;13.938;2023-05-03T04:05:13;100574.84;;;5.10;94.50
63903;BME280;50072;50.678;13.938;2023-05-03T04:07:39;100579.28;;;5.14;94.44
63903;BME280;50072;50.678;13.938;2023-05-03T04:10:05;100586.38;;;5.15;94.36
63903;BME280;50072;50.678;13.938;2023-05-03T04:12:32;100579.41;;;5.22;92.57
63903;BME280;50072;50.678;13.938;2023-05-03T04:14:58;100588.41;;;5.36;89.46
63903;BME280;50072;50.678;13.938;2023-05-03T04:17:24;100593.91;;;5.55;88.25
63903;BME280;50072;50.678;13.938;2023-05-03T04:19:50;100589.53;;;5.59;86.97
63903;BME280;50072;50.678;13.938;2023-05-03T04:22:16;100590.63;;;5.84;81.34
63903;BME280;50072;50.678;13.938;2023-05-03T04:24:42;100590.84;;;6.04;78.50
63903;BME280;50072;50.678;13.938;2023-05-03T04:27:08;100597.25;;;6.29;76.41
63903;BME280;50072;50.678;13.938;2023-05-03T04:29:34;100603.53;;;6.44;76.99
63903;BME280;50072;50.678;13.938;2023-05-03T04:32:03;100607.19;;;6.58;74.37
63903;BME280;50072;50.678;13.938;2023-05-03T04:34:29;100614.38;;;6.70;80.36
63903;BME280;50072;50.678;13.938;2023-05-03T04:36:55;100623.25;;;6.77;82.88
63903;BME280;50072;50.678;13.938;2023-05-03T04:39:22;100625.97;;;6.84;83.23
63903;BME280;50072;50.678;13.938;2023-05-03T04:41:48;100627.81;;;7.02;75.28
63903;BME280;50072;50.678;13.938;2023-05-03T04:44:14;100628.81;;;7.23;74.96
63903;BME280;50072;50.678;13.938;2023-05-03T04:46:41;100636.00;;;7.42;69.98
63903;BME280;50072;50.678;13.938;2023-05-03T04:49:08;100639.59;;;7.58;68.68
63903;BME280;50072;50.678;13.938;2023-05-03T04:51:35;100637.84;;;7.71;69.06
63903;BME280;50072;50.678;13.938;2023-05-03T04:54:01;100636.09;;;7.89;67.23
63903;BME280;50072;50.678;13.938;2023-05-03T04:56:27;100645.88;;;7.99;68.21
63903;BME280;50072;50.678;13.938;2023-05-03T04:58:54;100637.03;;;8.09;68.35
63903;BME280;50072;50.678;13.938;2023-05-03T05:01:21;100637.91;;;8.24;66.90
63903;BME280;50072;50.678;13.938;2023-05-03T05:03:51;100637.00;;;8.40;64.77
63903;BME280;50072;50.678;13.938;2023-05-03T05:06:18;100643.25;;;8.55;64.32
63903;BME280;50072;50.678;13.938;2023-05-03T05:08:45;100644.13;;;8.61;62.99
63903;BME280;50072;50.678;13.938;2023-05-03T05:11:12;100645.00;;;8.62;62.99
63903;BME280;50072;50.678;13.938;2023-05-03T05:13:38;100650.38;;;8.65;63.17
63903;BME280;50072;50.678;13.938;2023-05-03T05:16:06;100646.78;;;8.69;65.72
63903;BME280;50072;50.678;13.938;2023-05-03T05:18:32;100646.81;;;8.72;62.74
63903;BME280;50072;50.678;13.938;2023-05-03T05:20:59;100659.22;;;8.83;63.18
63903;BME280;50072;50.678;13.938;2023-05-03T05:23:26;100661.00;;;8.84;61.23
63903;BME280;50072;50.678;13.938;2023-05-03T05:25:53;100648.53;;;8.89;61.25
63903;BME280;50072;50.678;13.938;2023-05-03T05:28:19;100658.31;;;8.91;62.57
63903;BME280;50072;50.678;13.938;2023-05-03T05:30:46;100655.63;;;8.93;61.05
63903;BME280;50072;50.678;13.938;2023-05-03T05:33:11;100660.97;;;8.93;61.43
63903;BME280;50072;50.678;13.938;2023-05-03T05:35:38;100655.66;;;8.77;60.78
63903;BME280;50072;50.678;13.938;2023-05-03T05:38:03;100653.91;;;8.79;61.78
63903;BME280;50072;50.678;13.938;2023-05-03T05:40:30;100662.78;;;8.91;61.24
63903;BME280;50072;50.678;13.938;2023-05-03T05:42:56;100673.47;;;8.91;60.64
63903;BME280;50072;50.678;13.938;2023-05-03T05:45:22;100675.22;;;9.01;61.76
63903;BME280;50072;50.678;13.938;2023-05-03T05:47:49;100674.28;;;9.10;62.04
63903;BME280;50072;50.678;13.938;2023-05-03T05:50:16;100676.09;;;9.08;60.82
63903;BME280;50072;50.678;13.938;2023-05-03T05:52:42;100668.06;;;9.11;61.10
63903;BME280;50072;50.678;13.938;2023-05-03T05:55:08;100670.72;;;9.12;60.77
63903;BME280;50072;50.678;13.938;2023-05-03T05:57:38;100668.06;;;9.12;61.49
63903;BME280;50072;50.678;13.938;2023-05-03T06:00:05;100672.50;;;9.06;60.01
63903;BME280;50072;50.678;13.938;2023-05-03T06:02:42;100676.97;;;8.99;61.11
63903;BME280;50072;50.678;13.938;2023-05-03T06:05:10;100680.53;;;8.95;60.88
63903;BME280;50072;50.678;13.938;2023-05-03T06:07:36;100670.78;;;8.94;60.01
63903;BME280;50072;50.678;13.938;2023-05-03T06:10:03;100666.31;;;8.93;60.97
63903;BME280;50072;50.678;13.938;2023-05-03T06:12:29;100677.88;;;9.00;60.26
63903;BME280;50072;50.678;13.938;2023-05-03T06:14:56;100676.09;;;8.97;60.14
63903;BME280;50072;50.678;13.938;2023-05-03T06:17:21;100680.53;;;8.95;60.79
63903;BME280;50072;50.678;13.938;2023-05-03T06:19:48;100679.63;;;8.99;60.52
63903;BME280;50072;50.678;13.938;2023-05-03T06:22:15;100669.84;;;8.95;59.83
63903;BME280;50072;50.678;13.938;2023-05-03T06:24:41;100680.53;;;9.03;60.66
63903;BME280;50072;50.678;13.938;2023-05-03T06:27:11;100686.78;;;9.08;60.48
63903;BME280;50072;50.678;13.938;2023-05-03T06:29:37;100688.53;;;9.07;59.43
63903;BME280;50072;50.678;13.938;2023-05-03T06:32:05;100686.75;;;9.09;60.33
63903;BME280;50072;50.678;13.938;2023-05-03T06:34:32;100686.75;;;9.11;59.59
63903;BME280;50072;50.678;13.938;2023-05-03T06:36:58;100696.50;;;9.13;60.26
63903;BME280;50072;50.678;13.938;2023-05-03T06:39:24;100692.94;;;9.19;60.79
63903;BME280;50072;50.678;13.938;2023-05-03T06:41:51;100697.41;;;9.20;59.62
63903;BME280;50072;50.678;13.938;2023-05-03T06:44:19;100696.50;;;9.23;57.50
63903;BME280;50072;50.678;13.938;2023-05-03T06:46:46;100700.91;;;9.35;58.72
63903;BME280;50072;50.678;13.938;2023-05-03T06:49:12;100699.97;;;9.43;59.21
63903;BME280;50072;50.678;13.938;2023-05-03T06:51:37;100694.63;;;9.53;58.67
63903;BME280;50072;50.678;13.938;2023-05-03T06:54:03;100703.53;;;9.58;57.73
63903;BME280;50072;50.678;13.938;2023-05-03T06:56:33;100696.31;;;9.66;57.56
63903;BME280;50072;50.678;13.938;2023-05-03T06:59:02;100698.94;;;9.80;57.53
63903;BME280;50072;50.678;13.938;2023-05-03T07:01:30;100698.00;;;9.85;56.74
63903;BME280;50072;50.678;13.938;2023-05-03T07:04:04;100699.75;;;9.93;56.12
63903;BME280;50072;50.678;13.938;2023-05-03T07:06:29;100694.34;;;9.99;56.44
63903;BME280;50072;50.678;13.938;2023-05-03T07:08:56;100693.44;;;10.09;53.75
63903;BME280;50072;50.678;13.938;2023-05-03T07:11:22;100698.69;;;10.18;55.28
63903;BME280;50072;50.678;13.938;2023-05-03T07:13:57;100695.06;;;10.35;53.67
63903;BME280;50072;50.678;13.938;2023-05-03T07:16:23;100693.19;;;10.46;53.24
63903;BME280;50072;50.678;13.938;2023-05-03T07:18:51;100681.47;;;10.60;52.70
63903;BME280;50072;50.678;13.938;2023-05-03T07:21:17;100690.19;;;10.83;52.44
63903;BME280;50072;50.678;13.938;2023-05-03T07:23:49;100687.34;;;10.96;50.90
63903;BME280;50072;50.678;13.938;2023-05-03T07:26:15;100693.41;;;11.16;50.50
63903;BME280;50072;50.678;13.938;2023-05-03T07:28:44;100688.81;;;11.29;50.44
63903;BME280;50072;50.678;13.938;2023-05-03T07:31:10;100692.22;;;11.42;50.63
63903;BME280;50072;50.678;13.938;2023-05-03T07:33:38;100689.44;;;11.50;50.34
63903;BME280;50072;50.678;13.938;2023-05-03T07:36:06;100685.81;;;11.54;49.27
63903;BME280;50072;50.678;13.938;2023-05-03T07:38:32;100679.28;;;11.75;48.81
63903;BME280;50072;50.678;13.938;2023-05-03T07:40:58;100684.50;;;11.86;48.19
63903;BME280;50072;50.678;13.938;2023-05-03T07:43:24;100692.41;;;11.97;48.87
63903;BME280;50072;50.678;13.938;2023-05-03T07:45:50;100686.00;;;12.10;48.63
63903;BME280;50072;50.678;13.938;2023-05-03T07:48:16;100684.78;;;12.28;47.45
63903;BME280;50072;50.678;13.938;2023-05-03T07:50:42;100685.38;;;12.49;47.39
63903;BME280;50072;50.678;13.938;2023-05-03T07:53:10;100684.28;;;12.60;45.40
63903;BME280;50072;50.678;13.938;2023-05-03T07:55:38;100686.69;;;12.76;47.09
63903;BME280;50072;50.678;13.938;2023-05-03T07:58:06;100683.88;;;12.82;47.06
63903;BME280;50072;50.678;13.938;2023-05-03T08:00:31;100689.84;;;12.98;43.22
63903;BME280;50072;50.678;13.938;2023-05-03T08:02:59;100682.56;;;13.05;45.38
63903;BME280;50072;50.678;13.938;2023-05-03T08:05:28;100694.13;;;13.10;43.31
63903;BME280;50072;50.678;13.938;2023-05-03T08:07:55;100689.63;;;13.10;43.30
63903;BME280;50072;50.678;13.938;2023-05-03T08:10:21;100691.41;;;13.11;45.74
63903;BME280;50072;50.678;13.938;2023-05-03T08:12:46;100689.03;;;13.43;44.50
63903;BME280;50072;50.678;13.938;2023-05-03T08:15:13;100684.56;;;13.42;42.46
63903;BME280;50072;50.678;13.938;2023-05-03T08:17:40;100672.69;;;13.52;43.17
63903;BME280;50072;50.678;13.938;2023-05-03T08:20:07;100681.09;;;13.79;42.86
63903;BME280;50072;50.678;13.938;2023-05-03T08:22:34;100675.38;;;13.94;43.06
63903;BME280;50072;50.678;13.938;2023-05-03T08:25:03;100676.63;;;14.19;41.09
63903;BME280;50072;50.678;13.938;2023-05-03T08:27:31;100674.09;;;14.48;43.80
63903;BME280;50072;50.678;13.938;2023-05-03T08:29:56;100670.59;;;14.81;43.40
63903;BME280;50072;50.678;13.938;2023-05-03T08:32:22;100664.38;;;15.12;40.64
63903;BME280;50072;50.678;13.938;2023-05-03T08:34:49;100662.53;;;15.45;42.87
63903;BME280;50072;50.678;13.938;2023-05-03T08:37:16;100666.16;;;15.74;39.31
63903;BME280;50072;50.678;13.938;2023-05-03T08:39:41;100655.03;;;15.86;39.94
63903;BME280;50072;50.678;13.938;2023-05-03T08:42:08;100666.22;;;16.02;38.24
63903;BME280;50072;50.678;13.938;2023-05-03T08:44:46;100665.78;;;16.16;37.04
63903;BME280;50072;50.678;13.938;2023-05-03T08:47:14;100670.78;;;16.29;38.88
63903;BME280;50072;50.678;13.938;2023-05-03T08:49:43;100671.69;;;16.29;37.42
63903;BME280;50072;50.678;13.938;2023-05-03T08:52:10;100673.13;;;16.39;36.77
63903;BME280;50072;50.678;13.938;2023-05-03T08:54:37;100664.94;;;16.69;36.47
63903;BME280;50072;50.678;13.938;2023-05-03T08:57:07;100667.91;;;16.87;36.09
63903;BME280;50072;50.678;13.938;2023-05-03T08:59:48;100664.97;;;17.20;35.92
63903;BME280;50072;50.678;13.938;2023-05-03T09:02:14;100655.31;;;17.62;36.03
63903;BME280;50072;50.678;13.938;2023-05-03T09:04:40;100665.44;;;17.80;35.17
63903;BME280;50072;50.678;13.938;2023-05-03T09:07:10;100655.72;;;17.98;36.79
63903;BME280;50072;50.678;13.938;2023-05-03T09:09:36;100665.94;;;17.91;33.79
63903;BME280;50072;50.678;13.938;2023-05-03T09:12:03;100662.38;;;17.42;35.93
63903;BME280;50072;50.678;13.938;2023-05-03T09:14:29;100665.44;;;17.56;34.09
63903;BME280;50072;50.678;13.938;2023-05-03T09:16:55;100669.38;;;16.97;33.29
63903;BME280;50072;50.678;13.938;2023-05-03T09:19:21;100658.63;;;16.15;34.53
63903;BME280;50072;50.678;13.938;2023-05-03T09:21:49;100669.09;;;15.36;36.59
63903;BME280;50072;50.678;13.938;2023-05-03T09:24:20;100665.50;;;15.66;37.44
63903;BME280;50072;50.678;13.938;2023-05-03T09:26:50;100662.81;;;15.96;37.19
63903;BME280;50072;50.678;13.938;2023-05-03T09:29:27;100664.00;;;16.44;36.53
63903;BME280;50072;50.678;13.938;2023-05-03T09:32:02;100659.47;;;16.98;34.57
63903;BME280;50072;50.678;13.938;2023-05-03T09:34:33;100664.66;;;17.76;35.44
63903;BME280;50072;50.678;13.938;2023-05-03T09:37:00;100659.63;;;18.35;34.35
63903;BME280;50072;50.678;13.938;2023-05-03T09:39:27;100658.34;;;18.66;32.58
63903;BME280;50072;50.678;13.938;2023-05-03T09:41:53;100657.16;;;18.94;31.24
63903;BME280;50072;50.678;13.938;2023-05-03T09:44:45;100650.88;;;18.51;31.64
63903;BME280;50072;50.678;13.938;2023-05-03T09:47:16;100651.66;;;17.63;34.18
63903;BME280;50072;50.678;13.938;2023-05-03T09:49:43;100648.06;;;17.86;34.21
63903;BME280;50072;50.678;13.938;2023-05-03T09:52:10;100638.47;;;18.01;32.91
63903;BME280;50072;50.678;13.938;2023-05-03T09:54:41;100635.16;;;18.59;33.67
63903;BME280;50072;50.678;13.938;2023-05-03T09:57:09;100640.03;;;18.93;32.99
63903;BME280;50072;50.678;13.938;2023-05-03T09:59:36;100638.88;;;19.20;33.82
63903;BME280;50072;50.678;13.938;2023-05-03T10:02:05;100635.69;;;19.10;29.69
63903;BME280;50072;50.678;13.938;2023-05-03T10:04:47;100633.78;;;18.91;34.18
63903;BME280;50072;50.678;13.938;2023-05-03T10:07:17;100626.00;;;19.63;32.09
63903;BME280;50072;50.678;13.938;2023-05-03T10:09:47;100618.47;;;19.89;31.32
63903;BME280;50072;50.678;13.938;2023-05-03T10:12:14;100621.03;;;19.92;31.57
63903;BME280;50072;50.678;13.938;2023-05-03T10:14:47;100611.28;;;20.24;30.47
63903;BME280;50072;50.678;13.938;2023-05-03T10:17:26;100617.50;;;20.26;28.76
63903;BME280;50072;50.678;13.938;2023-05-03T10:25:29;100605.16;;;20.56;29.29
63903;BME280;50072;50.678;13.938;2023-05-03T10:30:35;100602.19;;;21.46;27.26
63903;BME280;50072;50.678;13.938;2023-05-03T10:35:53;100601.38;;;21.94;25.98
63903;BME280;50072;50.678;13.938;2023-05-03T10:38:25;100603.38;;;22.22;25.17
63903;BME280;50072;50.678;13.938;2023-05-03T10:40:59;100594.66;;;22.62;26.21
63903;BME280;50072;50.678;13.938;2023-05-03T10:46:01;100595.97;;;23.73;25.13
63903;BME280;50072;50.678;13.938;2023-05-03T10:48:31;100584.81;;;24.18;23.10
63903;BME280;50072;50.678;13.938;2023-05-03T10:53:53;100592.66;;;24.77;22.17
63903;BME280;50072;50.678;13.938;2023-05-03T10:56:24;100592.47;;;26.07;22.65
63903;BME280;50072;50.678;13.938;2023-05-03T10:58:50;100592.78;;;26.75;20.99
63903;BME280;50072;50.678;13.938;2023-05-03T11:01:22;100586.53;;;27.43;20.10
63903;BME280;50072;50.678;13.938;2023-05-03T11:03:59;100592.50;;;27.82;19.56
63903;BME280;50072;50.678;13.938;2023-05-03T11:06:37;100587.97;;;28.15;19.83
63903;BME280;50072;50.678;13.938;2023-05-03T11:09:09;100592.19;;;28.84;19.42
63903;BME280;50072;50.678;13.938;2023-05-03T11:11:39;100591.59;;;29.94;17.55
63903;BME280;50072;50.678;13.938;2023-05-03T11:14:06;100589.47;;;30.27;17.24
63903;BME280;50072;50.678;13.938;2023-05-03T11:16:33;100588.06;;;30.91;18.31
63903;BME280;50072;50.678;13.938;2023-05-03T11:19:04;100589.00;;;31.95;16.72
63903;BME280;50072;50.678;13.938;2023-05-03T11:21:36;100585.75;;;31.81;15.28
63903;BME280;50072;50.678;13.938;2023-05-03T11:24:02;100593.06;;;32.82;14.98
63903;BME280;50072;50.678;13.938;2023-05-03T11:26:34;100594.16;;;33.16;14.68
63903;BME280;50072;50.678;13.938;2023-05-03T11:29:00;100593.66;;;32.94;14.28
63903;BME280;50072;50.678;13.938;2023-05-03T11:31:26;100592.53;;;33.05;13.89
63903;BME280;50072;50.678;13.938;2023-05-03T11:33:52;100580.91;;;34.13;13.22
63903;BME280;50072;50.678;13.938;2023-05-03T11:36:18;100566.25;;;34.62;14.42
63903;BME280;50072;50.678;13.938;2023-05-03T11:38:44;100582.94;;;34.54;13.76
63903;BME280;50072;50.678;13.938;2023-05-03T11:41:12;100580.25;;;34.19;12.85
63903;BME280;50072;50.678;13.938;2023-05-03T11:43:42;100573.88;;;34.52;13.89
63903;BME280;50072;50.678;13.938;2023-05-03T11:46:09;100576.50;;;35.11;12.39
63903;BME280;50072;50.678;13.938;2023-05-03T11:48:35;100569.34;;;35.81;11.69
63903;BME280;50072;50.678;13.938;2023-05-03T11:51:06;100564.34;;;36.77;12.77
63903;BME280;50072;50.678;13.938;2023-05-03T11:53:36;100566.78;;;36.34;12.44
63903;BME280;50072;50.678;13.938;2023-05-03T11:56:02;100563.47;;;37.15;11.56
63903;BME280;50072;50.678;13.938;2023-05-03T11:58:31;100558.81;;;36.92;12.43
63903;BME280;50072;50.678;13.938;2023-05-03T12:00:57;100566.41;;;37.37;12.02
63903;BME280;50072;50.678;13.938;2023-05-03T12:03:25;100571.81;;;36.39;12.36
63903;BME280;50072;50.678;13.938;2023-05-03T12:05:52;100562.38;;;36.40;12.30
63903;BME280;50072;50.678;13.938;2023-05-03T12:08:27;100561.75;;;36.76;11.23
63903;BME280;50072;50.678;13.938;2023-05-03T12:10:53;100564.78;;;37.27;11.69
63903;BME280;50072;50.678;13.938;2023-05-03T12:13:30;100554.31;;;36.68;11.82
63903;BME280;50072;50.678;13.938;2023-05-03T12:15:58;100562.09;;;36.73;11.79
63903;BME280;50072;50.678;13.938;2023-05-03T12:18:44;100560.41;;;36.72;11.35
63903;BME280;50072;50.678;13.938;2023-05-03T12:21:10;100553.75;;;36.96;12.05
63903;BME280;50072;50.678;13.938;2023-05-03T12:23:37;100560.03;;;37.58;10.94
63903;BME280;50072;50.678;13.938;2023-05-03T12:26:03;100563.88;;;37.87;11.39
63903;BME280;50072;50.678;13.938;2023-05-03T12:28:28;100563.97;;;37.63;11.42
63903;BME280;50072;50.678;13.938;2023-05-03T12:30:54;100563.41;;;37.83;10.91
63903;BME280;50072;50.678;13.938;2023-05-03T12:33:20;100551.25;;;37.61;10.96
63903;BME280;50072;50.678;13.938;2023-05-03T12:35:46;100545.13;;;37.65;10.45
63903;BME280;50072;50.678;13.938;2023-05-03T12:38:11;100546.53;;;37.17;11.30
63903;BME280;50072;50.678;13.938;2023-05-03T12:40:38;100537.03;;;37.41;11.43
63903;BME280;50072;50.678;13.938;2023-05-03T12:43:05;100536.41;;;36.86;10.47
63903;BME280;50072;50.678;13.938;2023-05-03T12:45:31;100537.63;;;37.36;10.97
63903;BME280;50072;50.678;13.938;2023-05-03T12:47:57;100530.84;;;36.86;10.91
63903;BME280;50072;50.678;13.938;2023-05-03T12:50:27;100527.78;;;37.55;11.74
63903;BME280;50072;50.678;13.938;2023-05-03T12:53:02;100526.94;;;36.72;11.19
63903;BME280;50072;50.678;13.938;2023-05-03T12:55:28;100532.47;;;36.95;11.11
63903;BME280;50072;50.678;13.938;2023-05-03T12:57:59;100533.53;;;36.56;11.08
63903;BME280;50072;50.678;13.938;2023-05-03T13:00:26;100525.44;;;36.99;10.23
63903;BME280;50072;50.678;13.938;2023-05-03T13:02:59;100517.38;;;38.01;11.17
63903;BME280;50072;50.678;13.938;2023-05-03T13:05:26;100525.94;;;37.62;10.50
63903;BME280;50072;50.678;13.938;2023-05-03T13:07:51;100522.03;;;37.93;10.38
63903;BME280;50072;50.678;13.938;2023-05-03T13:10:17;100526.97;;;37.91;10.01
63903;BME280;50072;50.678;13.938;2023-05-03T13:12:46;100522.97;;;38.01;11.14
63903;BME280;50072;50.678;13.938;2023-05-03T13:15:16;100516.44;;;38.30;9.82